Here is the Quick Look data you requested

The Data originates at the National Weather Service, and is made available here by the UAlbany Department of Atmospheric and Environmental Sciences

Surface Observations

KPIT 151051Z 21009G17KT 7SM -DZ OVC006 14/14 A2995 RMK AO2 SLP149 P0000
 T01440144 $=
KPIT 151109Z 21010G16KT 6SM -DZ BR OVC004 15/14 A2996 RMK AO2 P0000 T01500144 $=
KPIT 151151Z 22010G16KT 2SM -DZ BR OVC004 15/15 A2996 RMK AO2 SLP151 P0000
 60001 70002 T01500150 10150 20117 53005 $=
KPIT 151241Z 22009KT 7SM -DZ BKN005 OVC010 16/15 A2995 RMK AO2 P0000 T01560150
 $=
KPIT 151251Z 22008KT 7SM BKN008 OVC012 16/15 A2996 RMK AO2 DZE49 SLP151 P0000
 T01560150 $=
KPIT 151340Z 22010G18KT 10SM -RA BKN010 OVC015 16/16 A2994 RMK AO2 RAB19 P0000
 T01610156=
KPIT 151351Z 20008KT 10SM -RA BKN010 OVC015 16/16 A2995 RMK AO2 RAB19 SLP147
 P0000 T01610156=
KPIT 151451Z 23009KT 10SM OVC012 17/16 A2996 RMK AO2 RAE19 SLP151 P0000 60000
 T01670156 55000=
KPIT 151551Z 24010G19KT 8SM -DZ OVC014 17/16 A2995 RMK AO2 DZB43 SLP150 P0000
 T01670156=
KPIT 151651Z 22012KT 8SM -RA BKN011 BKN016 OVC027 17/16 A2993 RMK AO2
 DZE48RAB48 SLP143 P0000 T01720161=
KPIT 151744Z 23011G16KT 2SM R28R/5500VP6000FT -RA BR BKN009 OVC015 17/16 A2993
 RMK AO2 SFC VIS 3 P0000 T01670161=
KPIT 151751Z 23012G17KT 2SM R28R/4500VP6000FT RA BR OVC009 17/16 A2992 RMK AO2
 SLP139 P0000 60000 T01670161 10178 20150 58011=
KPIT 151818Z 27012G20KT 6SM -RA BR BKN008 OVC023 16/15 A2993 RMK AO2 P0012
 T01560150=
KPIT 151841Z 29015KT 8SM -RA SCT007 BKN013 OVC025 15/14 A2994 RMK AO2 P0012
 T01500139=
KPIT 151851Z 29011KT 7SM -RA FEW009 BKN014 OVC020 14/14 A2995 RMK AO2 SLP148
 P0012 T01440139=
KPIT 151923Z 29014KT 8SM -RA BKN008 BKN013 OVC021 14/14 A2995 RMK AO2 P0003
 T01390139=
KPIT 151941Z 29015G22KT 9SM -RA SCT008 BKN013 OVC019 14/13 A2997 RMK AO2 P0003
 T01390128=
KPIT 151951Z 29012G20KT 7SM -RA BKN010 OVC017 13/13 A2997 RMK AO2 SLP157 P0003
 T01330128=
KPIT 152051Z 29014KT 7SM -RA BKN011 OVC020 12/12 A2999 RMK AO2 SLP162 P0001
 60016 T01220117 51021=
KPIT 152151Z 29012KT 10SM SCT011 BKN020 OVC036 12/11 A3001 RMK AO2 RAE08 SLP171
 P0000 T01220111=
KPIT 152251Z 28014G21KT 10SM FEW014 OVC023 11/09 A3004 RMK AO2 SLP178 T01110094=
KPIT 152351Z 28017G21KT 10SM OVC021 11/08 A3009 RMK AO2 PRESRR SLP197 60016
 T01060078 10167 20106 53034=
KPIT 160029Z 29011KT 10SM SCT025 OVC070 10/07 A3010 RMK AO2 T01000072=
KPIT 160051Z 29010G18KT 10SM FEW028 OVC075 10/07 A3011 RMK AO2 SLP203 T01000067=
KPIT 160151Z 28009KT 10SM FEW028 SCT080 OVC220 09/06 A3015 RMK AO2 SLP218
 T00890061=
KPIT 160251Z 29012KT 10SM SCT025 SCT080 OVC220 08/04 A3018 RMK AO2 SLP228
 T00780044 53029 $=
KPIT 160351Z 26003KT 10SM SCT023 OVC240 07/04 A3020 RMK AO2 SLP234 T00720039 $=
KPIT 160451Z 27005KT 10SM FEW028 SCT180 OVC240 07/04 A3020 RMK AO2 SLP235
 T00670039 401780067 $=
KPIT 160551Z 25004KT 10SM SCT180 BKN250 06/03 A3020 RMK AO2 SLP234 T00610033
 10106 20061 50006 $=
KPIT 160651Z 27005KT 10SM FEW050 BKN180 05/03 A3021 RMK AO2 SLP240 T00500028 $=
KPIT 160751Z 29007KT 10SM FEW060 BKN200 04/02 A3021 RMK AO2 SLP240 T00390022 $=
KPIT 160851Z 26006KT 10SM FEW060 BKN200 03/02 A3021 RMK AO2 SLP243 T00330017
 51005 $=
KPIT 160951Z 29005KT 10SM FEW080 BKN220 02/01 A3022 RMK AO2 SLP246 T00220006 $=
KPIT 161051Z 00000KT 10SM FEW110 BKN220 02/01 A3023 RMK AO2 SLP251 T00220006 $=
KPIT 161151Z 26003KT 10SM FEW110 BKN220 01/01 A3023 RMK AO2 SLP253 70016
 T00110006 10061 20011 51007 $=
KPIT 161251Z 27003KT 10SM BKN250 02/00 A3025 RMK AO2 SLP257 T00220000=
KPIT 161351Z 31004KT 10SM BKN250 04/01 A3025 RMK AO2 SLP256 T00440006=
KPIT 161451Z 25006KT 10SM FEW028 BKN250 07/01 A3024 RMK AO2 SLP254 T00670006
 50003=
KPIT 161551Z 25008KT 10SM FEW032 BKN250 07/00 A3023 RMK AO2 SLP249 T00670000=
KPIT 161651Z 20009KT 10SM FEW180 BKN250 08/M01 A3019 RMK AO2 SLP236 T00781011=
KPIT 161751Z 23009KT 10SM BKN250 09/M01 A3016 RMK AO2 SLP227 T00891011 10089
 20011 58026=
KPIT 161851Z 23005KT 10SM BKN250 09/M01 A3013 RMK AO2 SLP216 T00941006=
KPIT 161951Z 26008KT 220V280 10SM BKN250 11/M02 A3012 RMK AO2 SLP212 T01061017=
KPIT 162051Z 22010KT 10SM BKN250 11/M02 A3010 RMK AO2 SLP205 T01061017 56022=
KPIT 162151Z 23004KT 10SM OVC250 10/M01 A3009 RMK AO2 SLP204 T01001006=
KPIT 162251Z 21005KT 10SM BKN250 09/01 A3009 RMK AO2 SLP203 T00890006=